createdAt,value
2018-12-05T00:02:10.512Z,4.60
2018-12-05T00:04:38.268Z,5.63
2018-12-05T00:07:06.001Z,3.77
2018-12-05T00:09:33.704Z,5.80
2018-12-05T00:12:01.440Z,4.80
2018-12-05T00:14:29.722Z,5.33
2018-12-05T00:16:57.459Z,5.83
2018-12-05T00:19:25.221Z,4.37
2018-12-05T00:21:52.953Z,5.57
2018-12-05T00:24:20.667Z,4.67
2018-12-05T00:26:48.409Z,7.20
2018-12-05T00:29:16.172Z,5.17
2018-12-05T00:31:43.930Z,5.17
2018-12-05T00:34:11.661Z,6.63
2018-12-05T00:36:39.990Z,6.70
2018-12-05T00:39:09.011Z,8.13
2018-12-05T00:41:36.792Z,7.00
2018-12-05T00:44:05.519Z,6.07
2018-12-05T00:46:33.293Z,6.13
2018-12-05T00:49:01.069Z,7.97
2018-12-05T00:51:28.821Z,8.47
2018-12-05T00:53:56.562Z,5.23
2018-12-05T00:56:24.360Z,8.53
2018-12-05T00:58:52.108Z,6.27
2018-12-05T01:01:21.974Z,9.13
2018-12-05T01:03:49.710Z,8.93
2018-12-05T01:06:17.513Z,7.03
2018-12-05T01:08:45.247Z,6.47
2018-12-05T01:11:13.054Z,9.57
2018-12-05T01:13:40.846Z,8.03
2018-12-05T01:16:08.654Z,10.50
2018-12-05T01:18:36.412Z,6.80
2018-12-05T01:21:04.182Z,9.60
2018-12-05T01:23:31.896Z,9.47
2018-12-05T01:25:59.672Z,10.57
2018-12-05T01:28:27.401Z,10.23
2018-12-05T01:30:55.217Z,6.40
2018-12-05T01:33:22.982Z,9.57
2018-12-05T01:38:43.172Z,9.83
2018-12-05T01:41:10.944Z,9.10
2018-12-05T01:43:44.151Z,8.27
2018-12-05T01:46:11.905Z,10.27
2018-12-05T01:48:39.706Z,10.17
2018-12-05T01:51:07.473Z,9.93
2018-12-05T01:53:35.197Z,9.23
2018-12-05T01:56:03.101Z,8.53
2018-12-05T01:58:30.894Z,10.80
2018-12-05T02:00:59.545Z,9.37
2018-12-05T02:03:27.292Z,10.97
2018-12-05T02:05:55.049Z,10.40
2018-12-05T02:08:22.847Z,10.80
2018-12-05T02:10:50.650Z,10.93
2018-12-05T02:13:18.384Z,9.40
2018-12-05T02:15:46.090Z,11.20
2018-12-05T02:18:13.845Z,12.90
2018-12-05T02:20:41.702Z,15.90
2018-12-05T02:23:09.597Z,11.63
2018-12-05T02:25:37.709Z,10.50
2018-12-05T02:28:05.463Z,12.47
2018-12-05T02:30:33.195Z,12.53
2018-12-05T02:33:00.921Z,11.37
2018-12-05T02:35:28.695Z,11.50
2018-12-05T02:37:56.447Z,10.27
2018-12-05T02:40:24.196Z,9.50
2018-12-05T02:42:51.960Z,14.70
2018-12-05T02:45:19.698Z,10.77
2018-12-05T02:47:47.526Z,13.33
2018-12-05T02:50:15.271Z,11.47
2018-12-05T02:52:42.964Z,12.67
2018-12-05T02:55:10.725Z,10.83
2018-12-05T02:57:38.463Z,13.07
2018-12-05T03:00:07.374Z,9.27
2018-12-05T03:02:35.122Z,10.97
2018-12-05T03:05:03.401Z,11.00
2018-12-05T03:07:31.119Z,13.30
2018-12-05T03:09:58.841Z,11.00
2018-12-05T03:12:26.560Z,10.20
2018-12-05T03:14:54.381Z,10.63
2018-12-05T03:17:22.122Z,12.37
2018-12-05T03:19:49.842Z,12.27
2018-12-05T03:22:17.633Z,11.03
2018-12-05T03:24:45.385Z,12.17
2018-12-05T03:27:13.097Z,11.50
2018-12-05T03:29:40.864Z,12.40
2018-12-05T03:32:08.737Z,11.87
2018-12-05T03:34:36.496Z,12.30
2018-12-05T03:37:04.343Z,14.93
2018-12-05T03:39:32.165Z,12.83
2018-12-05T03:41:59.935Z,11.33
2018-12-05T03:44:27.799Z,11.33
2018-12-05T03:46:55.552Z,12.43
2018-12-05T03:49:23.299Z,12.03
2018-12-05T03:51:51.944Z,11.00
2018-12-05T03:54:19.707Z,12.27
2018-12-05T03:56:47.459Z,12.03
2018-12-05T03:59:15.251Z,10.60
2018-12-05T04:01:43.145Z,12.73
2018-12-05T04:04:10.961Z,13.13
2018-12-05T04:06:38.756Z,13.23
2018-12-05T04:09:07.071Z,11.67
2018-12-05T04:11:34.907Z,14.67
2018-12-05T04:14:02.752Z,12.33
2018-12-05T04:16:30.534Z,11.80
2018-12-05T04:18:58.285Z,15.33
2018-12-05T04:21:26.044Z,10.77
2018-12-05T04:23:53.870Z,14.80
2018-12-05T04:26:21.577Z,13.27
2018-12-05T04:28:49.345Z,11.53
2018-12-05T04:31:17.064Z,16.63
2018-12-05T04:33:44.847Z,14.30
2018-12-05T04:36:12.608Z,14.00
2018-12-05T04:38:41.216Z,19.23
2018-12-05T04:41:09.014Z,15.80
2018-12-05T04:43:36.782Z,17.73
2018-12-05T04:46:04.556Z,16.37
2018-12-05T04:48:32.353Z,15.07
2018-12-05T04:51:00.117Z,18.03
2018-12-05T04:53:27.828Z,15.00
2018-12-05T04:55:55.583Z,15.03
2018-12-05T04:58:23.364Z,15.90
2018-12-05T05:00:51.142Z,15.20
2018-12-05T05:03:18.949Z,15.33
2018-12-05T05:05:46.706Z,18.23
2018-12-05T05:08:14.469Z,18.37
2018-12-05T05:10:42.191Z,17.83
2018-12-05T05:13:09.964Z,16.70
2018-12-05T05:15:37.757Z,14.20
2018-12-05T05:18:05.510Z,17.27
2018-12-05T05:20:33.255Z,17.23
2018-12-05T05:23:01.007Z,17.77
2018-12-05T05:25:28.809Z,15.97
2018-12-05T05:27:56.534Z,15.83
2018-12-05T05:30:24.305Z,15.03
2018-12-05T05:32:53.295Z,12.40
2018-12-05T05:35:22.336Z,13.77
2018-12-05T05:37:50.098Z,12.73
2018-12-05T05:40:17.833Z,13.73
2018-12-05T05:42:45.705Z,14.93
2018-12-05T05:45:13.508Z,10.93
2018-12-05T05:47:41.272Z,13.03
2018-12-05T05:50:09.908Z,14.30
2018-12-05T05:52:37.694Z,15.83
2018-12-05T05:55:05.638Z,12.43
2018-12-05T05:57:33.347Z,12.33
2018-12-05T06:00:01.111Z,14.83
2018-12-05T06:02:28.913Z,11.03
2018-12-05T06:04:56.688Z,16.73
2018-12-05T06:07:24.454Z,11.60
2018-12-05T06:09:52.314Z,15.80
2018-12-05T06:12:20.065Z,15.10
2018-12-05T06:14:47.813Z,14.77
2018-12-05T06:17:15.558Z,14.53
2018-12-05T06:19:43.300Z,14.87
2018-12-05T06:22:11.099Z,18.33
2018-12-05T06:24:38.890Z,14.47
2018-12-05T06:27:06.707Z,17.00
2018-12-05T06:29:34.502Z,15.40
2018-12-05T06:32:02.317Z,16.57
2018-12-05T06:34:30.048Z,18.17
2018-12-05T06:36:57.810Z,18.73
2018-12-05T06:39:25.579Z,17.80
2018-12-05T06:41:53.358Z,20.43
2018-12-05T06:44:21.095Z,18.30
2018-12-05T06:46:49.023Z,15.13
2018-12-05T06:49:16.737Z,15.73
2018-12-05T06:51:44.570Z,14.77
2018-12-05T06:54:12.393Z,16.47
2018-12-05T06:56:40.327Z,14.17
2018-12-05T06:59:08.078Z,13.93
2018-12-05T07:01:35.793Z,18.17
2018-12-05T07:04:03.715Z,18.23
2018-12-05T07:06:31.437Z,15.43
2018-12-05T07:08:59.146Z,14.90
2018-12-05T07:11:26.901Z,14.67
2018-12-05T07:13:54.625Z,15.63
2018-12-05T07:16:22.395Z,14.40
2018-12-05T07:18:50.113Z,13.83
2018-12-05T07:21:17.809Z,17.80
2018-12-05T07:23:45.562Z,14.57
2018-12-05T07:26:13.345Z,13.23
2018-12-05T07:28:41.205Z,14.40
2018-12-05T07:31:13.977Z,15.77
2018-12-05T07:33:41.733Z,14.00
2018-12-05T07:36:10.352Z,12.93
2018-12-05T07:38:38.131Z,15.37
2018-12-05T07:41:05.888Z,16.47
2018-12-05T07:43:33.624Z,18.40
2018-12-05T07:46:01.325Z,19.10
2018-12-05T07:48:29.076Z,17.50
2018-12-05T07:50:56.810Z,15.20
2018-12-05T07:53:24.532Z,18.07
2018-12-05T07:55:52.332Z,17.83
2018-12-05T07:58:20.074Z,18.77
2018-12-05T08:00:47.887Z,19.80
2018-12-05T08:03:15.706Z,14.63
2018-12-05T08:05:43.569Z,21.30
2018-12-05T08:08:11.493Z,24.97
2018-12-05T08:10:40.262Z,22.03
2018-12-05T08:13:08.010Z,24.50
2018-12-05T08:15:35.758Z,22.23
2018-12-05T08:18:03.486Z,19.70
2018-12-05T08:20:31.236Z,20.30
2018-12-05T08:22:59.022Z,20.37
2018-12-05T08:25:26.732Z,18.03
2018-12-05T08:27:54.538Z,21.10
2018-12-05T08:30:22.314Z,20.30
2018-12-05T08:32:50.041Z,18.87
2018-12-05T08:35:17.772Z,19.83
2018-12-05T08:37:45.492Z,21.00
2018-12-05T08:40:13.222Z,20.57
2018-12-05T08:42:42.021Z,21.10
2018-12-05T08:45:09.760Z,24.43
2018-12-05T08:47:37.469Z,20.50
2018-12-05T08:50:05.768Z,21.37
2018-12-05T08:52:33.643Z,21.33
2018-12-05T08:55:01.485Z,17.93
2018-12-05T08:57:29.228Z,20.77
2018-12-05T08:59:56.965Z,20.10
2018-12-05T09:02:24.780Z,20.07
2018-12-05T09:04:52.530Z,21.40
2018-12-05T09:07:20.248Z,19.73
2018-12-05T09:09:48.012Z,22.17
2018-12-05T09:12:15.786Z,23.63
2018-12-05T09:14:43.713Z,23.27
2018-12-05T09:17:11.495Z,22.37
2018-12-05T09:19:39.212Z,17.33
2018-12-05T09:22:06.977Z,19.20
2018-12-05T09:24:34.697Z,17.77
2018-12-05T09:27:02.477Z,17.17
2018-12-05T09:29:30.298Z,15.83
2018-12-05T09:31:58.180Z,18.00
2018-12-05T09:34:26.480Z,18.13
2018-12-05T09:36:54.313Z,18.77
2018-12-05T09:39:22.134Z,19.43
2018-12-05T09:41:50.184Z,20.87
2018-12-05T09:44:17.942Z,15.03
2018-12-05T09:46:46.457Z,23.43
2018-12-05T09:49:14.249Z,15.83
2018-12-05T09:51:42.182Z,18.77
2018-12-05T09:54:09.925Z,18.73
2018-12-05T09:56:37.698Z,18.63
2018-12-05T09:59:05.472Z,23.47
2018-12-05T10:01:33.207Z,22.90
2018-12-05T10:04:01.017Z,19.77
2018-12-05T10:06:28.776Z,20.27
2018-12-05T10:08:56.631Z,18.47
2018-12-05T10:11:24.389Z,22.87
2018-12-05T10:13:52.141Z,19.97
2018-12-05T10:16:20.001Z,21.47
2018-12-05T10:18:47.779Z,21.23
2018-12-05T10:21:15.578Z,20.83
2018-12-05T10:23:43.321Z,20.17
2018-12-05T10:26:11.063Z,23.33
2018-12-05T10:28:38.841Z,19.03
2018-12-05T10:31:06.601Z,21.43
2018-12-05T10:33:34.421Z,20.93
2018-12-05T10:36:02.193Z,21.77
2018-12-05T10:38:29.919Z,25.77
2018-12-05T10:40:57.839Z,21.27
2018-12-05T10:43:25.782Z,23.93
2018-12-05T10:45:53.508Z,20.80
2018-12-05T10:48:21.448Z,22.10
2018-12-05T10:50:49.225Z,23.87
2018-12-05T10:53:17.139Z,23.30
2018-12-05T10:55:45.102Z,22.57
2018-12-05T10:58:12.913Z,24.20
2018-12-05T11:00:47.132Z,22.60
2018-12-05T11:03:19.390Z,23.90
2018-12-05T11:05:52.628Z,22.03
2018-12-05T11:08:24.988Z,22.10
2018-12-05T11:10:58.261Z,19.10
2018-12-05T11:13:32.097Z,21.53
2018-12-05T11:16:05.202Z,22.57
2018-12-05T11:18:38.667Z,19.73
2018-12-05T11:21:12.059Z,19.60
2018-12-05T11:23:45.496Z,22.23
2018-12-05T11:26:17.658Z,15.90
2018-12-05T11:28:45.454Z,16.63
2018-12-05T11:31:13.849Z,17.17
2018-12-05T11:33:41.631Z,18.37
2018-12-05T11:36:09.372Z,21.87
2018-12-05T11:38:37.142Z,21.80
2018-12-05T11:41:05.000Z,18.53
2018-12-05T11:43:32.904Z,14.53
2018-12-05T11:46:00.780Z,18.07
2018-12-05T11:48:28.511Z,17.43
2018-12-05T11:50:56.326Z,17.90
2018-12-05T11:53:24.750Z,19.43
2018-12-05T11:55:52.538Z,21.70
2018-12-05T11:58:20.265Z,16.83
2018-12-05T12:00:48.046Z,21.33
2018-12-05T12:03:16.769Z,22.23
2018-12-05T12:05:44.557Z,17.17
2018-12-05T12:08:12.494Z,20.03
2018-12-05T12:10:40.856Z,22.20
2018-12-05T12:13:10.335Z,18.00
2018-12-05T12:15:38.164Z,17.17
2018-12-05T12:18:06.179Z,20.23
2018-12-05T12:20:33.958Z,23.83
2018-12-05T12:23:01.726Z,17.50
2018-12-05T12:25:30.243Z,19.03
2018-12-05T12:27:59.065Z,17.93
2018-12-05T12:30:27.213Z,18.63
2018-12-05T12:32:54.960Z,19.67
2018-12-05T12:35:22.722Z,18.97
2018-12-05T12:37:50.541Z,17.20
2018-12-05T12:40:18.360Z,16.97
2018-12-05T12:42:46.149Z,19.17
2018-12-05T12:45:14.190Z,19.40
2018-12-05T12:47:41.946Z,18.03
2018-12-05T12:50:09.780Z,19.17
2018-12-05T12:52:37.530Z,23.40
2018-12-05T12:55:05.932Z,19.10
2018-12-05T12:57:33.687Z,14.87
2018-12-05T13:00:01.461Z,18.40
2018-12-05T13:02:29.206Z,16.03
2018-12-05T13:04:56.946Z,16.27
2018-12-05T13:07:24.770Z,17.07
2018-12-05T13:09:52.500Z,19.40
2018-12-05T13:12:25.930Z,18.07
2018-12-05T13:14:53.687Z,16.30
2018-12-05T13:17:21.455Z,18.93
2018-12-05T13:19:50.261Z,18.70
2018-12-05T13:22:18.058Z,14.77
2018-12-05T13:24:46.058Z,15.87
2018-12-05T13:27:13.857Z,19.40
2018-12-05T13:29:41.674Z,14.57
2018-12-05T13:32:09.575Z,14.40
2018-12-05T13:34:37.393Z,16.97
2018-12-05T13:37:05.162Z,15.53
2018-12-05T13:39:33.617Z,13.53
2018-12-05T13:42:01.425Z,16.30
2018-12-05T13:44:30.327Z,15.83
2018-12-05T13:46:58.138Z,15.30
2018-12-05T13:49:26.102Z,14.03
2018-12-05T13:51:53.901Z,18.00
2018-12-05T13:54:21.690Z,15.90
2018-12-05T13:56:49.586Z,16.43
2018-12-05T13:59:17.409Z,14.93
2018-12-05T14:01:45.226Z,14.50
2018-12-05T14:04:13.085Z,15.87
2018-12-05T14:06:41.782Z,16.73
2018-12-05T14:09:09.954Z,17.33
2018-12-05T14:11:37.768Z,18.50
2018-12-05T14:14:05.550Z,19.83
2018-12-05T14:16:33.317Z,18.30
2018-12-05T14:19:01.195Z,16.40
2018-12-05T14:21:29.098Z,17.60
2018-12-05T14:23:56.860Z,15.63
2018-12-05T14:26:24.676Z,18.70
2018-12-05T14:28:52.453Z,17.87
2018-12-05T14:31:20.213Z,19.40
2018-12-05T14:33:49.142Z,16.00
2018-12-05T14:36:16.924Z,16.43
2018-12-05T14:38:44.726Z,19.63
2018-12-05T14:41:12.519Z,23.13
2018-12-05T14:43:40.373Z,16.93
2018-12-05T14:46:08.137Z,18.00
2018-12-05T14:48:36.098Z,15.23
2018-12-05T14:51:03.896Z,13.13
2018-12-05T14:53:31.741Z,19.73
2018-12-05T14:55:59.501Z,16.27
2018-12-05T14:58:27.251Z,15.90
2018-12-05T15:00:55.008Z,18.63
2018-12-05T15:03:22.773Z,15.10
2018-12-05T15:05:50.570Z,16.57
2018-12-05T15:08:18.419Z,13.20
2018-12-05T15:10:46.221Z,14.40
2018-12-05T15:13:13.984Z,22.10
2018-12-05T15:15:41.764Z,17.13
2018-12-05T15:18:09.580Z,17.27
2018-12-05T15:20:37.379Z,14.93
2018-12-05T15:23:05.141Z,18.47
2018-12-05T15:25:32.910Z,19.30
2018-12-05T15:28:00.745Z,17.43
2018-12-05T15:30:28.545Z,17.00
2018-12-05T15:32:56.393Z,17.17
2018-12-05T15:35:24.429Z,17.00
2018-12-05T15:37:52.274Z,17.57
2018-12-05T15:40:20.098Z,19.10
2018-12-05T15:42:47.880Z,14.50
2018-12-05T15:45:21.510Z,13.93
2018-12-05T15:47:45.734Z,14.20
2018-12-05T15:50:13.524Z,16.60
2018-12-05T15:52:41.310Z,14.43
2018-12-05T15:55:09.198Z,17.13
2018-12-05T15:57:36.917Z,14.20
2018-12-05T16:00:06.238Z,17.40
2018-12-05T16:02:34.004Z,21.50
2018-12-05T16:05:01.994Z,19.10
2018-12-05T16:07:29.758Z,14.00
2018-12-05T16:09:57.496Z,15.37
2018-12-05T16:12:25.244Z,15.37
2018-12-05T16:14:53.102Z,18.93
2018-12-05T16:17:20.890Z,15.93
2018-12-05T16:19:48.640Z,18.37
2018-12-05T16:22:16.426Z,17.13
2018-12-05T16:24:44.221Z,16.90
2018-12-05T16:27:11.999Z,16.70
2018-12-05T16:29:39.712Z,16.77
2018-12-05T16:32:07.443Z,19.17
2018-12-05T16:34:35.202Z,14.37
2018-12-05T16:37:03.644Z,16.40
2018-12-05T16:39:31.447Z,18.43
2018-12-05T16:41:59.165Z,15.33
2018-12-05T16:44:26.908Z,18.63
2018-12-05T16:46:54.690Z,15.57
2018-12-05T16:49:22.536Z,17.70
2018-12-05T16:51:50.300Z,18.00
2018-12-05T16:54:18.300Z,20.03
2018-12-05T16:56:46.030Z,17.10
2018-12-05T16:59:13.800Z,18.10
2018-12-05T17:01:41.535Z,17.10
2018-12-05T17:04:09.396Z,15.43
2018-12-05T17:06:37.096Z,16.90
2018-12-05T17:09:11.498Z,19.50
2018-12-05T17:11:39.355Z,22.93
2018-12-05T17:14:07.186Z,16.20
2018-12-05T17:16:34.956Z,18.03
2018-12-05T17:19:02.788Z,18.50
2018-12-05T17:21:30.526Z,19.27
2018-12-05T17:23:58.317Z,19.20
2018-12-05T17:26:26.101Z,18.93
2018-12-05T17:28:53.941Z,20.40
2018-12-05T17:31:21.906Z,21.37
2018-12-05T17:33:49.681Z,20.07
2018-12-05T17:36:17.420Z,20.73
2018-12-05T17:38:45.234Z,19.60
2018-12-05T17:41:13.022Z,18.73
2018-12-05T17:43:41.130Z,19.37
2018-12-05T17:46:08.869Z,19.03
2018-12-05T17:48:36.758Z,26.93
2018-12-05T17:51:04.574Z,25.20
2018-12-05T17:53:32.350Z,18.47
2018-12-05T17:56:00.096Z,21.90
2018-12-05T17:58:27.873Z,21.23
2018-12-05T18:00:55.767Z,21.73
2018-12-05T18:03:23.615Z,22.83
2018-12-05T18:05:51.444Z,21.10
2018-12-05T18:08:19.902Z,24.20
2018-12-05T18:10:47.639Z,21.10
2018-12-05T18:13:17.352Z,18.33
2018-12-05T18:15:45.666Z,22.10
2018-12-05T18:18:14.493Z,21.30
2018-12-05T18:20:42.258Z,23.27
2018-12-05T18:23:10.226Z,24.20
2018-12-05T18:25:38.112Z,20.53
2018-12-05T18:28:06.046Z,23.60
2018-12-05T18:30:33.958Z,17.13
2018-12-05T18:33:01.778Z,21.67
2018-12-05T18:35:29.586Z,20.57
2018-12-05T18:37:59.082Z,23.63
2018-12-05T18:40:26.893Z,25.47
2018-12-05T18:42:54.667Z,23.10
2018-12-05T18:45:22.441Z,24.53
2018-12-05T18:47:50.210Z,21.00
2018-12-05T18:50:17.959Z,22.77
2018-12-05T18:52:45.764Z,23.57
2018-12-05T18:55:13.690Z,20.17
2018-12-05T18:57:41.486Z,21.27
2018-12-05T19:00:10.486Z,21.83
2018-12-05T19:02:38.230Z,23.13
2018-12-05T19:05:06.636Z,21.20
2018-12-05T19:07:34.369Z,21.00
2018-12-05T19:10:02.133Z,19.03
2018-12-05T19:12:29.888Z,18.63
2018-12-05T19:14:57.677Z,22.53
2018-12-05T19:17:25.469Z,19.37
2018-12-05T19:19:53.252Z,19.93
2018-12-05T19:22:21.086Z,20.47
2018-12-05T19:24:48.841Z,19.40
2018-12-05T19:27:16.586Z,21.03
2018-12-05T19:29:44.357Z,20.00
2018-12-05T19:32:12.197Z,23.27
2018-12-05T19:34:40.081Z,20.67
2018-12-05T19:37:07.922Z,21.57
2018-12-05T19:39:35.661Z,22.20
2018-12-05T19:42:03.376Z,21.37
2018-12-05T19:44:31.921Z,22.77
2018-12-05T19:46:59.684Z,22.50
2018-12-05T19:49:27.448Z,24.13
2018-12-05T19:51:55.222Z,20.77
2018-12-05T19:54:22.989Z,23.70
2018-12-05T19:56:50.777Z,24.33
2018-12-05T19:59:18.566Z,24.17
2018-12-05T20:01:46.321Z,21.80
2018-12-05T20:04:15.079Z,23.90
2018-12-05T20:06:42.855Z,26.00
2018-12-05T20:09:10.626Z,24.23
2018-12-05T20:11:38.365Z,28.17
2018-12-05T20:14:06.212Z,22.93
2018-12-05T20:16:34.828Z,25.00
2018-12-05T20:19:02.545Z,27.67
2018-12-05T20:21:30.314Z,24.57
2018-12-05T20:23:58.232Z,28.07
2018-12-05T20:26:25.961Z,24.77
2018-12-05T20:28:53.722Z,25.40
2018-12-05T20:31:21.938Z,28.90
2018-12-05T20:33:49.704Z,26.93
2018-12-05T20:36:17.542Z,23.43
2018-12-05T20:38:45.363Z,26.13
2018-12-05T20:41:13.224Z,23.93
2018-12-05T20:43:40.990Z,25.40
2018-12-05T20:46:08.756Z,24.53
2018-12-05T20:48:37.315Z,23.90
2018-12-05T20:51:05.110Z,32.93
2018-12-05T20:53:32.855Z,22.87
2018-12-05T20:56:00.664Z,24.90
2018-12-05T20:58:28.429Z,23.03
2018-12-05T21:00:56.272Z,22.13
2018-12-05T21:03:24.073Z,23.10
2018-12-05T21:05:52.037Z,24.43
2018-12-05T21:08:19.788Z,22.83
2018-12-05T21:10:47.744Z,24.77
2018-12-05T21:13:15.604Z,21.83
2018-12-05T21:15:43.379Z,26.40
2018-12-05T21:18:11.151Z,20.33
2018-12-05T21:20:38.938Z,24.60
2018-12-05T21:23:07.646Z,24.27
2018-12-05T21:25:35.424Z,21.70
2018-12-05T21:33:33.106Z,23.10
2018-12-05T21:36:00.909Z,21.53
2018-12-05T21:38:28.738Z,23.50
2018-12-05T21:40:56.482Z,22.43
2018-12-05T21:43:24.264Z,22.03
2018-12-05T21:45:52.012Z,25.97
2018-12-05T21:48:19.792Z,23.83
2018-12-05T21:50:47.583Z,20.07
2018-12-05T21:53:15.396Z,26.20
2018-12-05T21:55:43.207Z,24.17
2018-12-05T21:58:11.009Z,24.43
2018-12-05T22:00:38.849Z,24.57
2018-12-05T22:03:06.574Z,25.87
2018-12-05T22:05:34.343Z,28.33
2018-12-05T22:08:02.109Z,24.80
2018-12-05T22:10:29.884Z,24.93
2018-12-05T22:12:57.714Z,25.50
2018-12-05T22:15:25.477Z,24.93
2018-12-05T22:17:53.394Z,26.03
2018-12-05T22:20:21.194Z,24.00
2018-12-05T22:22:48.970Z,24.47
2018-12-05T22:25:16.730Z,28.23
2018-12-05T22:27:44.508Z,27.60
2018-12-05T22:30:12.588Z,26.23
2018-12-05T22:32:40.410Z,27.23
2018-12-05T22:35:08.153Z,32.03
2018-12-05T22:37:35.846Z,28.03
2018-12-05T22:40:04.968Z,26.70
2018-12-05T22:42:32.762Z,25.67
2018-12-05T22:45:00.509Z,30.63
2018-12-05T22:47:28.862Z,24.97
2018-12-05T22:49:56.587Z,28.00
2018-12-05T22:52:24.339Z,26.97
2018-12-05T22:54:52.114Z,26.27
2018-12-05T22:57:19.862Z,25.83
2018-12-05T22:59:47.694Z,24.57
2018-12-05T23:02:15.466Z,29.90
2018-12-05T23:04:43.240Z,25.30
2018-12-05T23:07:10.996Z,25.40
2018-12-05T23:09:38.737Z,23.57
2018-12-05T23:12:06.636Z,27.90
2018-12-05T23:14:34.442Z,27.60
2018-12-05T23:17:02.208Z,26.47
2018-12-05T23:19:30.096Z,24.13
2018-12-05T23:21:57.891Z,27.20
2018-12-05T23:24:25.662Z,23.93
2018-12-05T23:26:54.874Z,25.10
2018-12-05T23:29:23.545Z,27.50
2018-12-05T23:31:51.420Z,30.90
2018-12-05T23:34:19.223Z,27.30
2018-12-05T23:36:47.238Z,27.63
2018-12-05T23:39:14.985Z,25.00
2018-12-05T23:41:42.778Z,26.57
2018-12-05T23:44:10.550Z,27.40
2018-12-05T23:46:38.648Z,20.63
2018-12-05T23:49:06.445Z,23.33
2018-12-05T23:51:34.209Z,27.03
2018-12-05T23:54:01.961Z,26.73
2018-12-05T23:56:29.765Z,26.67
2018-12-05T23:58:57.529Z,25.33
